sensor_id;sensor_type;location;lat;lon;timestamp;pressure;altitude;pressure_sealevel;temperature;humidity
13734;BME280;43298;52.560;13.508;2022-10-16T00:01:21;100082.72;;;14.43;100.00
13734;BME280;43298;52.560;13.508;2022-10-16T00:03:48;100084.56;;;14.41;100.00
13734;BME280;43298;52.560;13.508;2022-10-16T00:06:17;100088.41;;;14.36;100.00
13734;BME280;43298;52.560;13.508;2022-10-16T00:08:44;100082.16;;;14.38;100.00
13734;BME280;43298;52.560;13.508;2022-10-16T00:11:20;100094.06;;;14.42;100.00
13734;BME280;43298;52.560;13.508;2022-10-16T00:13:49;100091.88;;;14.49;100.00
13734;BME280;43298;52.560;13.508;2022-10-16T00:16:16;100089.88;;;14.52;100.00
13734;BME280;43298;52.560;13.508;2022-10-16T00:18:42;100093.13;;;14.56;100.00
13734;BME280;43298;52.560;13.508;2022-10-16T00:21:16;100095.28;;;14.62;100.00
13734;BME280;43298;52.560;13.508;2022-10-16T00:23:42;100101.84;;;14.67;100.00
13734;BME280;43298;52.560;13.508;2022-10-16T00:26:13;100099.03;;;14.70;100.00
13734;BME280;43298;52.560;13.508;2022-10-16T00:28:39;100098.31;;;14.68;100.00
13734;BME280;43298;52.560;13.508;2022-10-16T00:31:11;100103.63;;;14.67;100.00
13734;BME280;43298;52.560;13.508;2022-10-16T00:33:39;100114.13;;;14.65;100.00
13734;BME280;43298;52.560;13.508;2022-10-16T00:36:07;100109.03;;;14.64;100.00
13734;BME280;43298;52.560;13.508;2022-10-16T00:38:34;100116.72;;;14.65;100.00
13734;BME280;43298;52.560;13.508;2022-10-16T00:41:00;100114.22;;;14.64;100.00
13734;BME280;43298;52.560;13.508;2022-10-16T00:43:42;100116.72;;;14.65;100.00
13734;BME280;43298;52.560;13.508;2022-10-16T00:49:15;100121.53;;;14.59;100.00
13734;BME280;43298;52.560;13.508;2022-10-16T00:51:46;100111.84;;;14.48;100.00
13734;BME280;43298;52.560;13.508;2022-10-16T00:54:21;100115.28;;;14.49;100.00
13734;BME280;43298;52.560;13.508;2022-10-16T00:56:48;100117.03;;;14.48;100.00
13734;BME280;43298;52.560;13.508;2022-10-16T00:59:39;100113.72;;;14.46;100.00
13734;BME280;43298;52.560;13.508;2022-10-16T01:02:09;100121.53;;;14.46;100.00
13734;BME280;43298;52.560;13.508;2022-10-16T01:05:01;100130.03;;;14.48;100.00
13734;BME280;43298;52.560;13.508;2022-10-16T01:10:29;100132.53;;;14.37;100.00
13734;BME280;43298;52.560;13.508;2022-10-16T01:13:33;100138.97;;;14.32;100.00
13734;BME280;43298;52.560;13.508;2022-10-16T01:16:33;100134.81;;;14.29;100.00
13734;BME280;43298;52.560;13.508;2022-10-16T01:19:07;100135.63;;;14.30;100.00
13734;BME280;43298;52.560;13.508;2022-10-16T01:21:42;100138.69;;;14.36;100.00
13734;BME280;43298;52.560;13.508;2022-10-16T01:24:28;100140.72;;;14.31;100.00
13734;BME280;43298;52.560;13.508;2022-10-16T01:27:17;100145.53;;;14.25;100.00
13734;BME280;43298;52.560;13.508;2022-10-16T01:33:05;100138.13;;;14.31;100.00
13734;BME280;43298;52.560;13.508;2022-10-16T01:35:45;100142.84;;;14.39;100.00
13734;BME280;43298;52.560;13.508;2022-10-16T01:38:23;100144.63;;;14.63;100.00
13734;BME280;43298;52.560;13.508;2022-10-16T01:40:58;100142.66;;;14.79;100.00
13734;BME280;43298;52.560;13.508;2022-10-16T01:43:31;100147.75;;;14.93;100.00
13734;BME280;43298;52.560;13.508;2022-10-16T01:45:59;100149.00;;;15.00;100.00
13734;BME280;43298;52.560;13.508;2022-10-16T01:48:26;100141.06;;;15.15;100.00
13734;BME280;43298;52.560;13.508;2022-10-16T01:51:08;100150.28;;;15.31;100.00
13734;BME280;43298;52.560;13.508;2022-10-16T01:53:35;100149.44;;;15.31;100.00
13734;BME280;43298;52.560;13.508;2022-10-16T01:56:05;100151.47;;;15.40;100.00
13734;BME280;43298;52.560;13.508;2022-10-16T01:58:37;100137.38;;;15.42;100.00
13734;BME280;43298;52.560;13.508;2022-10-16T02:01:07;100138.81;;;15.46;100.00
13734;BME280;43298;52.560;13.508;2022-10-16T02:03:37;100142.28;;;15.47;100.00
13734;BME280;43298;52.560;13.508;2022-10-16T02:06:04;100145.16;;;15.55;100.00
13734;BME280;43298;52.560;13.508;2022-10-16T02:08:30;100153.56;;;15.58;100.00
13734;BME280;43298;52.560;13.508;2022-10-16T02:10:57;100152.88;;;15.56;100.00
13734;BME280;43298;52.560;13.508;2022-10-16T02:13:41;100159.31;;;15.63;100.00
13734;BME280;43298;52.560;13.508;2022-10-16T02:16:12;100154.94;;;15.64;100.00
13734;BME280;43298;52.560;13.508;2022-10-16T02:18:39;100162.88;;;15.62;100.00
13734;BME280;43298;52.560;13.508;2022-10-16T02:21:17;100166.38;;;15.61;100.00
13734;BME280;43298;52.560;13.508;2022-10-16T02:24:03;100183.09;;;15.59;100.00
13734;BME280;43298;52.560;13.508;2022-10-16T02:26:52;100190.69;;;15.62;100.00
13734;BME280;43298;52.560;13.508;2022-10-16T02:29:23;100196.31;;;15.56;100.00
13734;BME280;43298;52.560;13.508;2022-10-16T02:31:57;100187.06;;;15.52;100.00
13734;BME280;43298;52.560;13.508;2022-10-16T02:34:25;100180.16;;;15.63;100.00
13734;BME280;43298;52.560;13.508;2022-10-16T02:36:53;100182.44;;;15.68;100.00
13734;BME280;43298;52.560;13.508;2022-10-16T02:39:20;100192.88;;;15.68;100.00
13734;BME280;43298;52.560;13.508;2022-10-16T02:41:47;100205.91;;;15.68;100.00
13734;BME280;43298;52.560;13.508;2022-10-16T02:44:13;100204.75;;;15.72;100.00
13734;BME280;43298;52.560;13.508;2022-10-16T02:46:38;100203.09;;;15.71;100.00
13734;BME280;43298;52.560;13.508;2022-10-16T02:49:04;100190.97;;;15.70;100.00
13734;BME280;43298;52.560;13.508;2022-10-16T02:51:30;100203.78;;;15.73;100.00
13734;BME280;43298;52.560;13.508;2022-10-16T02:53:56;100212.66;;;15.70;100.00
13734;BME280;43298;52.560;13.508;2022-10-16T02:56:22;100213.72;;;15.68;100.00
13734;BME280;43298;52.560;13.508;2022-10-16T02:58:48;100219.44;;;15.73;100.00
13734;BME280;43298;52.560;13.508;2022-10-16T03:01:13;100218.00;;;15.69;100.00
13734;BME280;43298;52.560;13.508;2022-10-16T03:03:42;100222.25;;;15.70;100.00
13734;BME280;43298;52.560;13.508;2022-10-16T03:06:08;100217.25;;;15.67;100.00
13734;BME280;43298;52.560;13.508;2022-10-16T03:08:34;100224.16;;;15.68;100.00
13734;BME280;43298;52.560;13.508;2022-10-16T03:10:59;100229.78;;;15.62;100.00
13734;BME280;43298;52.560;13.508;2022-10-16T03:13:25;100229.50;;;15.54;100.00
13734;BME280;43298;52.560;13.508;2022-10-16T03:15:51;100228.97;;;15.49;100.00
13734;BME280;43298;52.560;13.508;2022-10-16T03:18:16;100237.94;;;15.45;100.00
13734;BME280;43298;52.560;13.508;2022-10-16T03:20:43;100233.56;;;15.45;100.00
13734;BME280;43298;52.560;13.508;2022-10-16T03:23:09;100241.91;;;15.38;100.00
13734;BME280;43298;52.560;13.508;2022-10-16T03:25:35;100249.09;;;15.34;100.00
13734;BME280;43298;52.560;13.508;2022-10-16T03:28:01;100250.56;;;15.26;100.00
13734;BME280;43298;52.560;13.508;2022-10-16T03:30:27;100260.66;;;15.18;100.00
13734;BME280;43298;52.560;13.508;2022-10-16T03:32:53;100252.84;;;15.18;100.00
13734;BME280;43298;52.560;13.508;2022-10-16T03:35:23;100251.72;;;15.09;100.00
13734;BME280;43298;52.560;13.508;2022-10-16T03:37:50;100257.41;;;15.01;100.00
13734;BME280;43298;52.560;13.508;2022-10-16T03:40:16;100260.22;;;14.86;100.00
13734;BME280;43298;52.560;13.508;2022-10-16T03:42:43;100269.16;;;14.82;100.00
13734;BME280;43298;52.560;13.508;2022-10-16T03:45:09;100274.56;;;14.79;100.00
13734;BME280;43298;52.560;13.508;2022-10-16T03:47:35;100269.06;;;14.83;100.00
13734;BME280;43298;52.560;13.508;2022-10-16T03:50:02;100266.84;;;14.77;100.00
13734;BME280;43298;52.560;13.508;2022-10-16T03:52:27;100275.81;;;14.73;100.00
13734;BME280;43298;52.560;13.508;2022-10-16T03:54:53;100276.84;;;14.71;100.00
13734;BME280;43298;52.560;13.508;2022-10-16T03:57:19;100294.97;;;14.72;100.00
13734;BME280;43298;52.560;13.508;2022-10-16T03:59:46;100291.88;;;14.80;100.00
13734;BME280;43298;52.560;13.508;2022-10-16T04:02:12;100293.72;;;14.78;100.00
13734;BME280;43298;52.560;13.508;2022-10-16T04:04:38;100291.53;;;14.72;100.00
13734;BME280;43298;52.560;13.508;2022-10-16T04:07:04;100284.28;;;14.77;100.00
13734;BME280;43298;52.560;13.508;2022-10-16T04:09:30;100284.56;;;14.72;100.00
13734;BME280;43298;52.560;13.508;2022-10-16T04:11:56;100280.59;;;14.67;100.00
13734;BME280;43298;52.560;13.508;2022-10-16T04:14:21;100289.63;;;14.61;100.00
13734;BME280;43298;52.560;13.508;2022-10-16T04:16:47;100297.44;;;14.61;100.00
13734;BME280;43298;52.560;13.508;2022-10-16T04:19:13;100298.03;;;14.52;100.00
13734;BME280;43298;52.560;13.508;2022-10-16T04:21:39;100307.72;;;14.50;100.00
13734;BME280;43298;52.560;13.508;2022-10-16T04:24:04;100301.47;;;14.53;100.00
13734;BME280;43298;52.560;13.508;2022-10-16T04:26:30;100297.88;;;14.41;100.00
13734;BME280;43298;52.560;13.508;2022-10-16T04:28:56;100301.94;;;14.45;100.00
13734;BME280;43298;52.560;13.508;2022-10-16T04:31:22;100295.84;;;14.46;100.00
13734;BME280;43298;52.560;13.508;2022-10-16T04:33:48;100286.94;;;14.36;100.00
13734;BME280;43298;52.560;13.508;2022-10-16T04:36:13;100306.38;;;14.31;100.00
13734;BME280;43298;52.560;13.508;2022-10-16T04:38:39;100287.91;;;14.21;100.00
13734;BME280;43298;52.560;13.508;2022-10-16T04:41:06;100281.94;;;14.19;100.00
13734;BME280;43298;52.560;13.508;2022-10-16T04:43:33;100287.44;;;14.15;100.00
13734;BME280;43298;52.560;13.508;2022-10-16T04:45:59;100281.06;;;14.06;100.00
13734;BME280;43298;52.560;13.508;2022-10-16T04:48:25;100283.41;;;13.97;100.00
13734;BME280;43298;52.560;13.508;2022-10-16T04:50:51;100278.47;;;13.92;100.00
13734;BME280;43298;52.560;13.508;2022-10-16T04:53:16;100279.50;;;13.90;100.00
13734;BME280;43298;52.560;13.508;2022-10-16T04:55:43;100272.41;;;13.79;100.00
13734;BME280;43298;52.560;13.508;2022-10-16T04:58:09;100278.97;;;13.85;100.00
13734;BME280;43298;52.560;13.508;2022-10-16T05:00:35;100272.13;;;13.84;100.00
13734;BME280;43298;52.560;13.508;2022-10-16T05:03:01;100270.44;;;13.83;100.00
13734;BME280;43298;52.560;13.508;2022-10-16T05:05:31;100269.44;;;13.71;100.00
13734;BME280;43298;52.560;13.508;2022-10-16T05:07:57;100277.78;;;13.62;100.00
13734;BME280;43298;52.560;13.508;2022-10-16T05:10:22;100289.56;;;13.54;100.00
13734;BME280;43298;52.560;13.508;2022-10-16T05:12:48;100292.94;;;13.56;100.00
13734;BME280;43298;52.560;13.508;2022-10-16T05:15:14;100303.41;;;13.54;100.00
13734;BME280;43298;52.560;13.508;2022-10-16T05:17:40;100312.22;;;13.52;100.00
13734;BME280;43298;52.560;13.508;2022-10-16T05:20:06;100308.69;;;13.53;100.00
13734;BME280;43298;52.560;13.508;2022-10-16T05:22:32;100312.97;;;13.54;100.00
13734;BME280;43298;52.560;13.508;2022-10-16T05:24:58;100309.50;;;13.53;100.00
13734;BME280;43298;52.560;13.508;2022-10-16T05:27:23;100308.34;;;13.59;100.00
13734;BME280;43298;52.560;13.508;2022-10-16T05:29:49;100306.28;;;13.64;100.00
13734;BME280;43298;52.560;13.508;2022-10-16T05:32:17;100306.38;;;13.62;100.00
13734;BME280;43298;52.560;13.508;2022-10-16T05:34:43;100308.97;;;13.62;100.00
13734;BME280;43298;52.560;13.508;2022-10-16T05:37:09;100296.75;;;13.64;100.00
13734;BME280;43298;52.560;13.508;2022-10-16T05:39:37;100288.72;;;13.67;100.00
13734;BME280;43298;52.560;13.508;2022-10-16T05:42:04;100289.47;;;13.69;100.00
13734;BME280;43298;52.560;13.508;2022-10-16T05:44:30;100294.31;;;13.75;100.00
13734;BME280;43298;52.560;13.508;2022-10-16T05:46:56;100300.81;;;13.82;100.00
13734;BME280;43298;52.560;13.508;2022-10-16T05:49:22;100304.88;;;13.86;100.00
13734;BME280;43298;52.560;13.508;2022-10-16T05:51:48;100313.03;;;13.94;100.00
13734;BME280;43298;52.560;13.508;2022-10-16T05:54:14;100315.06;;;14.03;100.00
13734;BME280;43298;52.560;13.508;2022-10-16T05:56:40;100306.88;;;14.09;100.00
13734;BME280;43298;52.560;13.508;2022-10-16T05:59:06;100302.31;;;14.13;100.00
13734;BME280;43298;52.560;13.508;2022-10-16T06:01:32;100296.28;;;14.12;100.00
13734;BME280;43298;52.560;13.508;2022-10-16T06:03:58;100296.94;;;14.16;100.00
13734;BME280;43298;52.560;13.508;2022-10-16T06:06:26;100300.53;;;14.13;100.00
13734;BME280;43298;52.560;13.508;2022-10-16T06:08:54;100306.16;;;14.07;100.00
13734;BME280;43298;52.560;13.508;2022-10-16T06:11:23;100313.94;;;14.07;100.00
13734;BME280;43298;52.560;13.508;2022-10-16T06:13:51;100316.97;;;14.14;100.00
13734;BME280;43298;52.560;13.508;2022-10-16T06:16:18;100323.47;;;14.21;100.00
13734;BME280;43298;52.560;13.508;2022-10-16T06:18:43;100328.31;;;14.27;100.00
13734;BME280;43298;52.560;13.508;2022-10-16T06:21:16;100333.03;;;14.34;100.00
13734;BME280;43298;52.560;13.508;2022-10-16T06:23:43;100333.69;;;14.38;100.00
13734;BME280;43298;52.560;13.508;2022-10-16T06:26:16;100329.00;;;14.43;100.00
13734;BME280;43298;52.560;13.508;2022-10-16T06:28:42;100336.72;;;14.44;100.00
13734;BME280;43298;52.560;13.508;2022-10-16T06:31:09;100324.25;;;14.49;100.00
13734;BME280;43298;52.560;13.508;2022-10-16T06:33:37;100327.50;;;14.53;100.00
13734;BME280;43298;52.560;13.508;2022-10-16T06:36:09;100333.13;;;14.59;100.00
13734;BME280;43298;52.560;13.508;2022-10-16T06:38:36;100345.00;;;14.63;100.00
13734;BME280;43298;52.560;13.508;2022-10-16T06:41:02;100348.69;;;14.73;100.00
13734;BME280;43298;52.560;13.508;2022-10-16T06:43:32;100360.47;;;14.79;100.00
13734;BME280;43298;52.560;13.508;2022-10-16T06:45:59;100361.22;;;14.81;100.00
13734;BME280;43298;52.560;13.508;2022-10-16T06:48:26;100367.25;;;14.81;100.00
13734;BME280;43298;52.560;13.508;2022-10-16T06:51:17;100368.00;;;14.83;100.00
13734;BME280;43298;52.560;13.508;2022-10-16T06:53:49;100377.47;;;14.84;100.00
13734;BME280;43298;52.560;13.508;2022-10-16T06:56:18;100378.00;;;14.89;100.00
13734;BME280;43298;52.560;13.508;2022-10-16T06:58:45;100377.41;;;14.98;100.00
13734;BME280;43298;52.560;13.508;2022-10-16T07:01:13;100373.75;;;15.01;100.00
13734;BME280;43298;52.560;13.508;2022-10-16T07:03:41;100372.13;;;15.13;100.00
13734;BME280;43298;52.560;13.508;2022-10-16T07:06:09;100374.84;;;15.24;100.00
13734;BME280;43298;52.560;13.508;2022-10-16T07:08:38;100383.84;;;15.32;100.00
13734;BME280;43298;52.560;13.508;2022-10-16T07:11:08;100378.38;;;15.49;100.00
13734;BME280;43298;52.560;13.508;2022-10-16T07:13:39;100384.31;;;15.64;100.00
13734;BME280;43298;52.560;13.508;2022-10-16T07:16:11;100385.03;;;15.78;100.00
13734;BME280;43298;52.560;13.508;2022-10-16T07:18:38;100388.56;;;16.02;100.00
13734;BME280;43298;52.560;13.508;2022-10-16T07:21:11;100392.00;;;16.15;100.00
13734;BME280;43298;52.560;13.508;2022-10-16T07:23:38;100390.38;;;16.25;100.00
13734;BME280;43298;52.560;13.508;2022-10-16T07:26:04;100381.81;;;16.36;100.00
13734;BME280;43298;52.560;13.508;2022-10-16T07:28:31;100385.88;;;16.40;100.00
13734;BME280;43298;52.560;13.508;2022-10-16T07:31:05;100384.38;;;16.61;100.00
13734;BME280;43298;52.560;13.508;2022-10-16T07:33:32;100390.81;;;16.68;100.00
13734;BME280;43298;52.560;13.508;2022-10-16T07:35:58;100399.88;;;16.75;100.00
13734;BME280;43298;52.560;13.508;2022-10-16T07:38:24;100408.16;;;16.69;100.00
13734;BME280;43298;52.560;13.508;2022-10-16T07:41:07;100403.41;;;16.74;100.00
13734;BME280;43298;52.560;13.508;2022-10-16T07:43:34;100414.59;;;16.76;100.00
13734;BME280;43298;52.560;13.508;2022-10-16T07:46:00;100419.34;;;16.71;100.00
13734;BME280;43298;52.560;13.508;2022-10-16T07:48:29;100435.59;;;16.74;100.00
13734;BME280;43298;52.560;13.508;2022-10-16T07:51:00;100449.69;;;16.84;100.00
13734;BME280;43298;52.560;13.508;2022-10-16T07:53:27;100460.13;;;16.84;100.00
13734;BME280;43298;52.560;13.508;2022-10-16T07:55:59;100442.09;;;16.69;100.00
13734;BME280;43298;52.560;13.508;2022-10-16T07:58:26;100444.94;;;16.66;100.00
13734;BME280;43298;52.560;13.508;2022-10-16T08:00:52;100460.81;;;16.63;100.00
13734;BME280;43298;52.560;13.508;2022-10-16T08:03:17;100461.16;;;16.58;100.00
13734;BME280;43298;52.560;13.508;2022-10-16T08:05:43;100456.75;;;16.59;100.00
13734;BME280;43298;52.560;13.508;2022-10-16T08:08:13;100456.91;;;16.68;100.00
13734;BME280;43298;52.560;13.508;2022-10-16T08:10:39;100476.03;;;16.69;100.00
13734;BME280;43298;52.560;13.508;2022-10-16T08:13:05;100479.47;;;16.82;100.00
13734;BME280;43298;52.560;13.508;2022-10-16T08:15:31;100489.25;;;16.91;100.00
13734;BME280;43298;52.560;13.508;2022-10-16T08:17:59;100492.16;;;16.99;100.00
13734;BME280;43298;52.560;13.508;2022-10-16T08:20:26;100494.09;;;17.08;100.00
13734;BME280;43298;52.560;13.508;2022-10-16T08:22:52;100487.47;;;17.15;100.00
13734;BME280;43298;52.560;13.508;2022-10-16T08:25:20;100494.88;;;17.21;100.00
13734;BME280;43298;52.560;13.508;2022-10-16T08:27:46;100484.81;;;17.27;100.00
13734;BME280;43298;52.560;13.508;2022-10-16T08:30:13;100486.56;;;17.27;100.00
13734;BME280;43298;52.560;13.508;2022-10-16T08:32:39;100491.84;;;17.38;100.00
13734;BME280;43298;52.560;13.508;2022-10-16T08:35:07;100494.31;;;17.52;100.00
13734;BME280;43298;52.560;13.508;2022-10-16T08:37:33;100510.38;;;17.47;100.00
13734;BME280;43298;52.560;13.508;2022-10-16T08:39:59;100511.59;;;17.54;100.00
13734;BME280;43298;52.560;13.508;2022-10-16T08:43:09;100521.66;;;17.48;100.00
13734;BME280;43298;52.560;13.508;2022-10-16T08:48:51;100533.72;;;17.61;100.00
13734;BME280;43298;52.560;13.508;2022-10-16T08:51:31;100542.06;;;17.66;100.00
13734;BME280;43298;52.560;13.508;2022-10-16T08:54:32;100544.78;;;17.65;100.00
13734;BME280;43298;52.560;13.508;2022-10-16T08:57:22;100542.84;;;17.56;100.00
13734;BME280;43298;52.560;13.508;2022-10-16T08:59:48;100551.63;;;17.55;100.00
13734;BME280;43298;52.560;13.508;2022-10-16T09:02:31;100548.78;;;17.34;100.00
13734;BME280;43298;52.560;13.508;2022-10-16T09:08:35;100563.16;;;17.52;100.00
13734;BME280;43298;52.560;13.508;2022-10-16T09:22:32;100602.72;;;18.41;100.00
13734;BME280;43298;52.560;13.508;2022-10-16T09:25:12;100605.13;;;18.44;100.00
13734;BME280;43298;52.560;13.508;2022-10-16T09:27:38;100612.25;;;18.53;100.00
13734;BME280;43298;52.560;13.508;2022-10-16T09:30:19;100614.31;;;18.71;100.00
13734;BME280;43298;52.560;13.508;2022-10-16T09:32:50;100618.59;;;18.83;100.00
13734;BME280;43298;52.560;13.508;2022-10-16T09:35:20;100626.72;;;19.02;100.00
13734;BME280;43298;52.560;13.508;2022-10-16T09:37:50;100639.06;;;19.22;100.00
13734;BME280;43298;52.560;13.508;2022-10-16T09:40:31;100639.06;;;19.44;100.00
13734;BME280;43298;52.560;13.508;2022-10-16T09:43:20;100651.13;;;19.25;100.00
13734;BME280;43298;52.560;13.508;2022-10-16T09:46:07;100661.63;;;19.47;100.00
13734;BME280;43298;52.560;13.508;2022-10-16T09:48:42;100655.25;;;20.03;100.00
13734;BME280;43298;52.560;13.508;2022-10-16T09:51:38;100681.72;;;20.42;100.00
13734;BME280;43298;52.560;13.508;2022-10-16T09:56:37;100727.28;;;20.21;100.00
13734;BME280;43298;52.560;13.508;2022-10-16T09:59:16;100720.19;;;20.01;100.00
13734;BME280;43298;52.560;13.508;2022-10-16T10:01:51;100729.16;;;19.98;100.00
13734;BME280;43298;52.560;13.508;2022-10-16T10:04:19;100732.53;;;19.67;100.00
13734;BME280;43298;52.560;13.508;2022-10-16T10:06:53;100733.78;;;20.48;100.00
13734;BME280;43298;52.560;13.508;2022-10-16T10:09:34;100745.22;;;21.30;100.00
13734;BME280;43298;52.560;13.508;2022-10-16T10:12:05;100781.38;;;21.88;100.00
13734;BME280;43298;52.560;13.508;2022-10-16T10:14:44;100790.16;;;20.97;100.00
13734;BME280;43298;52.560;13.508;2022-10-16T10:17:15;100799.94;;;20.42;100.00
13734;BME280;43298;52.560;13.508;2022-10-16T10:19:48;100781.63;;;20.09;100.00
13734;BME280;43298;52.560;13.508;2022-10-16T10:30:56;100783.72;;;19.73;100.00
13734;BME280;43298;52.560;13.508;2022-10-16T10:33:46;100777.84;;;19.47;100.00
13734;BME280;43298;52.560;13.508;2022-10-16T10:36:53;100789.03;;;19.16;100.00
13734;BME280;43298;52.560;13.508;2022-10-16T10:39:35;100787.81;;;19.09;100.00
13734;BME280;43298;52.560;13.508;2022-10-16T10:45:26;100800.44;;;19.15;100.00
13734;BME280;43298;52.560;13.508;2022-10-16T10:50:43;100800.41;;;19.72;100.00
13734;BME280;43298;52.560;13.508;2022-10-16T10:53:33;100806.69;;;20.24;100.00
13734;BME280;43298;52.560;13.508;2022-10-16T11:01:59;100848.88;;;20.97;100.00
13734;BME280;43298;52.560;13.508;2022-10-16T11:07:39;100892.84;;;20.95;100.00
13734;BME280;43298;52.560;13.508;2022-10-16T11:10:22;100898.88;;;20.75;100.00
13734;BME280;43298;52.560;13.508;2022-10-16T11:12:58;100905.38;;;20.92;100.00
13734;BME280;43298;52.560;13.508;2022-10-16T11:15:33;100915.06;;;20.48;100.00
13734;BME280;43298;52.560;13.508;2022-10-16T11:18:16;100905.63;;;20.46;100.00
13734;BME280;43298;52.560;13.508;2022-10-16T11:20:56;100916.28;;;20.22;100.00
13734;BME280;43298;52.560;13.508;2022-10-16T11:23:45;100925.09;;;20.32;100.00
13734;BME280;43298;52.560;13.508;2022-10-16T11:26:20;100925.13;;;20.10;100.00
13734;BME280;43298;52.560;13.508;2022-10-16T11:28:53;100916.97;;;20.02;100.00
13734;BME280;43298;52.560;13.508;2022-10-16T11:31:34;100909.81;;;19.93;100.00
13734;BME280;43298;52.560;13.508;2022-10-16T11:34:13;100918.53;;;19.94;100.00
13734;BME280;43298;52.560;13.508;2022-10-16T11:37:17;100911.97;;;19.99;100.00
13734;BME280;43298;52.560;13.508;2022-10-16T11:39:45;100916.47;;;19.97;100.00
13734;BME280;43298;52.560;13.508;2022-10-16T11:45:03;100932.13;;;19.88;100.00
13734;BME280;43298;52.560;13.508;2022-10-16T11:47:44;100926.88;;;20.10;100.00
13734;BME280;43298;52.560;13.508;2022-10-16T11:50:24;100939.66;;;20.03;100.00
13734;BME280;43298;52.560;13.508;2022-10-16T11:55:44;100965.19;;;20.67;100.00
13734;BME280;43298;52.560;13.508;2022-10-16T11:58:41;100977.75;;;20.64;100.00
13734;BME280;43298;52.560;13.508;2022-10-16T12:02:40;100976.19;;;20.61;100.00
13734;BME280;43298;52.560;13.508;2022-10-16T12:04:43;100975.97;;;20.42;100.00
13734;BME280;43298;52.560;13.508;2022-10-16T12:07:23;100992.63;;;20.08;100.00
13734;BME280;43298;52.560;13.508;2022-10-16T12:09:50;101003.00;;;19.88;100.00
13734;BME280;43298;52.560;13.508;2022-10-16T12:17:50;101014.19;;;20.24;100.00
13734;BME280;43298;52.560;13.508;2022-10-16T12:23:03;101037.09;;;20.89;100.00
13734;BME280;43298;52.560;13.508;2022-10-16T12:25:34;101036.38;;;21.09;100.00
13734;BME280;43298;52.560;13.508;2022-10-16T12:28:28;101048.56;;;21.10;100.00
13734;BME280;43298;52.560;13.508;2022-10-16T12:31:04;101040.44;;;21.13;100.00
13734;BME280;43298;52.560;13.508;2022-10-16T12:33:34;101046.75;;;21.10;100.00
13734;BME280;43298;52.560;13.508;2022-10-16T12:36:12;101052.19;;;21.09;100.00
13734;BME280;43298;52.560;13.508;2022-10-16T12:38:51;101058.25;;;20.87;100.00
13734;BME280;43298;52.560;13.508;2022-10-16T12:43:54;101064.94;;;20.91;100.00
13734;BME280;43298;52.560;13.508;2022-10-16T12:46:26;101058.84;;;20.91;100.00
13734;BME280;43298;52.560;13.508;2022-10-16T12:54:19;101066.78;;;21.02;100.00
13734;BME280;43298;52.560;13.508;2022-10-16T13:00:26;101085.75;;;20.83;100.00
13734;BME280;43298;52.560;13.508;2022-10-16T13:03:23;101083.00;;;20.74;100.00
13734;BME280;43298;52.560;13.508;2022-10-16T13:09:33;101080.28;;;20.97;100.00
13734;BME280;43298;52.560;13.508;2022-10-16T13:12:58;101083.00;;;21.07;100.00
13734;BME280;43298;52.560;13.508;2022-10-16T13:15:30;101097.34;;;21.14;100.00
13734;BME280;43298;52.560;13.508;2022-10-16T13:21:32;101099.81;;;21.37;100.00
13734;BME280;43298;52.560;13.508;2022-10-16T13:29:54;101113.63;;;21.93;100.00
13734;BME280;43298;52.560;13.508;2022-10-16T13:32:26;101118.47;;;21.88;100.00
13734;BME280;43298;52.560;13.508;2022-10-16T13:34:52;101121.03;;;21.56;100.00
13734;BME280;43298;52.560;13.508;2022-10-16T13:37:22;101121.50;;;21.08;100.00
13734;BME280;43298;52.560;13.508;2022-10-16T13:39:49;101122.56;;;20.72;100.00
13734;BME280;43298;52.560;13.508;2022-10-16T13:42:24;101119.78;;;20.51;100.00
13734;BME280;43298;52.560;13.508;2022-10-16T13:44:54;101123.59;;;20.58;100.00
13734;BME280;43298;52.560;13.508;2022-10-16T13:47:29;101125.06;;;20.74;100.00
13734;BME280;43298;52.560;13.508;2022-10-16T13:50:14;101122.78;;;20.91;100.00
13734;BME280;43298;52.560;13.508;2022-10-16T13:52:40;101121.75;;;20.94;100.00
13734;BME280;43298;52.560;13.508;2022-10-16T13:55:16;101113.47;;;20.87;100.00
13734;BME280;43298;52.560;13.508;2022-10-16T13:57:42;101116.09;;;20.87;100.00
13734;BME280;43298;52.560;13.508;2022-10-16T14:00:24;101118.38;;;20.81;100.00
13734;BME280;43298;52.560;13.508;2022-10-16T14:03:12;101113.25;;;20.68;100.00
13734;BME280;43298;52.560;13.508;2022-10-16T14:05:55;101128.63;;;20.61;100.00
13734;BME280;43298;52.560;13.508;2022-10-16T14:08:23;101128.16;;;20.56;100.00
13734;BME280;43298;52.560;13.508;2022-10-16T14:10:53;101133.88;;;20.50;100.00
13734;BME280;43298;52.560;13.508;2022-10-16T14:13:53;101140.31;;;20.46;100.00
13734;BME280;43298;52.560;13.508;2022-10-16T14:16:25;101142.34;;;20.43;100.00
13734;BME280;43298;52.560;13.508;2022-10-16T14:19:04;101136.72;;;20.36;100.00
13734;BME280;43298;52.560;13.508;2022-10-16T14:21:37;101147.22;;;20.36;100.00
13734;BME280;43298;52.560;13.508;2022-10-16T14:24:14;101143.38;;;20.29;100.00
13734;BME280;43298;52.560;13.508;2022-10-16T14:26:47;101145.28;;;20.27;100.00